Time;durP1;ratioP1;P1;durP2;ratioP2;P2;SDS_P1;SDS_P2;PMS_P1;PMS_P2;Temp;Humidity;BMP_temperature;BMP_pressure;BME280_temperature;BME280_humidity;BME280_pressure;Samples;Min_cycle;Max_cycle;Signal;HPM_P1;HPM_P2
2024/01/02 00:05:25;;;;;;;17.80;6.10;;;;;;;3.87;100.00;98359.95;273478;1272;22254;-88
2024/01/02 00:11:27;;;;;;;15.10;6.20;;;;;;;3.86;100.00;98358.09;273768;1270;22898;-88
2024/01/02 00:17:29;;;;;;;16.60;5.80;;;;;;;3.83;100.00;98349.94;273659;1272;22387;-89
2024/01/02 00:23:31;;;;;;;16.70;5.70;;;;;;;3.79;100.00;98344.95;273449;1269;22216;-90
2024/01/02 00:29:33;;;;;;;16.30;5.10;;;;;;;3.74;100.00;98342.30;273446;1270;23329;-89
2024/01/02 00:35:34;;;;;;;22.80;5.60;;;;;;;3.76;100.00;98341.57;273403;1269;22308;-90
2024/01/02 00:41:36;;;;;;;13.00;5.10;;;;;;;3.76;100.00;98343.11;273319;1267;22430;-89
2024/01/02 00:47:38;;;;;;;13.60;5.30;;;;;;;3.74;100.00;98346.39;273433;1273;23340;-89
2024/01/02 00:53:40;;;;;;;13.70;5.30;;;;;;;3.73;100.00;98357.88;273421;1269;22396;-90
2024/01/02 00:59:44;;;;;;;13.60;4.70;;;;;;;3.77;100.00;98363.17;273446;1268;22427;-90
2024/01/02 01:05:46;;;;;;;11.90;4.10;;;;;;;3.86;100.00;98359.70;273514;1269;22268;-89
2024/01/02 01:11:48;;;;;;;13.20;4.50;;;;;;;3.94;100.00;98354.34;273598;1269;22327;-90
2024/01/02 01:17:50;;;;;;;11.20;3.70;;;;;;;3.98;100.00;98354.15;273608;1272;22407;-89
2024/01/02 01:23:54;;;;;;;10.30;5.10;;;;;;;4.00;100.00;98357.23;273559;1266;23737;-89
2024/01/02 01:29:56;;;;;;;10.80;3.60;;;;;;;4.03;100.00;98352.27;273473;1272;22262;-90
2024/01/02 01:35:59;;;;;;;7.70;2.80;;;;;;;4.12;100.00;98348.57;273271;1270;22401;-89
2024/01/02 01:42:02;;;;;;;9.30;3.20;;;;;;;4.19;100.00;98352.52;273376;1272;22993;-90
2024/01/02 01:48:07;;;;;;;7.70;3.00;;;;;;;4.22;100.00;98363.38;273571;1273;22989;-90
2024/01/02 01:54:16;;;;;;;6.80;2.70;;;;;;;4.31;100.00;98375.35;273397;1269;22298;-89
2024/01/02 02:00:21;;;;;;;7.20;2.50;;;;;;;4.39;100.00;98378.52;273313;1269;22170;-90
2024/01/02 02:06:23;;;;;;;8.10;2.20;;;;;;;4.39;100.00;98376.34;273224;1262;23419;-90
2024/01/02 02:12:25;;;;;;;4.50;1.60;;;;;;;4.38;100.00;98378.58;273142;1272;22534;-89
2024/01/02 02:18:26;;;;;;;4.80;2.00;;;;;;;4.32;100.00;98371.77;273524;1269;23230;-90
2024/01/02 02:24:30;;;;;;;4.00;1.80;;;;;;;4.26;100.00;98373.23;273395;1269;23491;-91
2024/01/02 02:37:20;;;;;;;5.00;1.90;;;;;;;4.17;100.00;98370.81;271175;1276;22274;-90
2024/01/02 02:43:22;;;;;;;4.70;1.80;;;;;;;4.16;100.00;98371.26;272019;1276;22422;-88
2024/01/02 02:49:24;;;;;;;8.60;2.50;;;;;;;4.18;100.00;98371.63;270910;1277;23202;-89
2024/01/02 02:55:55;;;;;;;5.90;2.50;;;;;;;4.19;100.00;98364.44;272107;1275;22288;-88
2024/01/02 03:02:11;;;;;;;6.60;1.90;;;;;;;4.16;100.00;98363.83;272060;1276;22414;-90
2024/01/02 03:08:13;;;;;;;9.90;2.50;;;;;;;4.15;100.00;98366.29;270631;1277;22553;-88
2024/01/02 03:14:15;;;;;;;4.80;2.20;;;;;;;4.12;100.00;98367.54;271809;1277;22325;-90
2024/01/02 03:20:17;;;;;;;6.70;2.30;;;;;;;4.12;100.00;98367.52;272188;1276;22210;-89
2024/01/02 03:26:19;;;;;;;8.10;2.10;;;;;;;4.11;100.00;98362.39;272246;1276;23003;-89
2024/01/02 03:32:20;;;;;;;6.70;3.00;;;;;;;4.10;100.00;98356.39;271988;1277;22376;-90
2024/01/02 03:38:22;;;;;;;6.50;2.00;;;;;;;4.09;100.00;98356.27;270990;1276;150795;-89
2024/01/02 03:44:24;;;;;;;10.20;2.20;;;;;;;4.09;100.00;98363.10;269480;1277;22608;-88
2024/01/02 03:50:26;;;;;;;7.40;2.50;;;;;;;4.08;100.00;98361.84;271042;1276;22440;-88
2024/01/02 03:56:28;;;;;;;11.60;2.60;;;;;;;4.05;100.00;98359.36;272272;1277;22441;-88
2024/01/02 04:02:34;;;;;;;8.80;2.00;;;;;;;4.00;100.00;98362.70;272245;1276;22994;-89
2024/01/02 04:08:39;;;;;;;6.00;1.80;;;;;;;3.97;100.00;98366.02;271975;1276;22348;-89
2024/01/02 04:14:42;;;;;;;4.50;2.00;;;;;;;3.97;100.00;98361.63;272106;1276;22227;-89
2024/01/02 04:20:44;;;;;;;6.20;2.20;;;;;;;3.96;100.00;98364.92;272149;1277;22407;-89
2024/01/02 04:26:46;;;;;;;7.70;2.20;;;;;;;3.92;100.00;98372.46;272264;1276;22290;-90
2024/01/02 04:32:48;;;;;;;6.90;2.20;;;;;;;3.86;100.00;98369.14;269958;1274;25400;-88
2024/01/02 04:38:50;;;;;;;8.30;2.30;;;;;;;3.78;100.00;98368.38;268984;1277;23632;-89
2024/01/02 04:44:51;;;;;;;4.70;2.40;;;;;;;3.77;100.00;98367.35;269300;1278;22651;-90
2024/01/02 04:50:53;;;;;;;6.70;2.60;;;;;;;3.77;100.00;98365.88;271305;1277;22406;-88
2024/01/02 04:56:56;;;;;;;7.50;2.10;;;;;;;3.77;100.00;98368.66;272082;1277;23408;-89
2024/01/02 05:02:58;;;;;;;7.10;2.50;;;;;;;3.77;100.00;98362.33;271325;1275;22395;-89
2024/01/02 05:09:00;;;;;;;8.00;3.00;;;;;;;3.73;100.00;98364.59;270839;1277;22352;-89
2024/01/02 05:15:02;;;;;;;11.40;3.30;;;;;;;3.70;100.00;98366.14;272077;1275;22228;-89
2024/01/02 05:21:04;;;;;;;10.40;3.30;;;;;;;3.67;100.00;98363.20;271299;1277;22558;-89
2024/01/02 05:27:06;;;;;;;6.80;2.70;;;;;;;3.62;100.00;98365.47;269608;1276;22953;-89
2024/01/02 05:33:08;;;;;;;11.50;3.50;;;;;;;3.59;100.00;98367.38;271895;1276;22320;-89
2024/01/02 05:39:10;;;;;;;7.10;2.80;;;;;;;3.56;100.00;98369.14;272226;1276;22374;-90
2024/01/02 05:45:12;;;;;;;9.70;3.50;;;;;;;3.53;100.00;98380.40;272161;1277;22230;-89
2024/01/02 05:51:17;;;;;;;11.40;3.70;;;;;;;3.51;100.00;98373.02;271948;1277;23061;-89
2024/01/02 05:57:19;;;;;;;10.60;4.00;;;;;;;3.47;100.00;98370.59;272054;1276;22968;-89
2024/01/02 06:03:21;;;;;;;11.00;4.70;;;;;;;3.43;100.00;98365.14;270566;1278;22535;-90
2024/01/02 06:09:24;;;;;;;10.40;4.40;;;;;;;3.38;100.00;98369.64;270448;1276;23688;-90
2024/01/02 06:15:26;;;;;;;9.30;4.10;;;;;;;3.36;100.00;98366.56;271404;1278;22242;-89
2024/01/02 06:21:28;;;;;;;11.00;4.60;;;;;;;3.31;100.00;98366.65;272153;1277;23368;-90
2024/01/02 06:27:30;;;;;;;14.30;5.70;;;;;;;3.24;100.00;98366.98;272101;1278;22221;-89
2024/01/02 06:33:32;;;;;;;12.30;5.40;;;;;;;3.19;100.00;98370.61;270928;1276;22234;-89
2024/01/02 06:39:34;;;;;;;16.00;6.10;;;;;;;3.20;100.00;98376.36;272197;1277;22233;-89
2024/01/02 06:45:36;;;;;;;16.00;5.50;;;;;;;3.21;100.00;98377.27;270737;1277;22668;-89
2024/01/02 06:51:38;;;;;;;15.20;6.20;;;;;;;3.22;100.00;98376.81;272013;1275;22387;-89
2024/01/02 06:57:40;;;;;;;13.10;5.70;;;;;;;3.19;100.00;98374.88;270494;1277;27504;-89
2024/01/02 07:03:42;;;;;;;14.80;6.20;;;;;;;3.17;100.00;98375.42;272034;1277;22315;-89
2024/01/02 07:09:44;;;;;;;11.40;6.30;;;;;;;3.19;100.00;98374.73;272150;1276;22254;-89
2024/01/02 07:15:46;;;;;;;16.60;6.40;;;;;;;3.26;100.00;98369.81;270916;1275;22413;-89
2024/01/02 07:21:48;;;;;;;13.20;6.80;;;;;;;3.30;100.00;98367.52;272187;1277;23844;-90
2024/01/02 07:27:50;;;;;;;15.50;7.10;;;;;;;3.26;100.00;98368.43;271977;1275;22407;-90
2024/01/02 07:33:52;;;;;;;15.70;7.20;;;;;;;3.23;100.00;98366.57;271951;1276;22305;-88
2024/01/02 07:39:54;;;;;;;16.50;8.60;;;;;;;3.25;100.00;98360.98;271154;1276;22313;-89
2024/01/02 07:45:57;;;;;;;18.00;8.50;;;;;;;3.30;100.00;98358.04;271973;1275;22376;-89
2024/01/02 07:51:59;;;;;;;20.20;8.40;;;;;;;3.43;100.00;98360.12;272101;1276;22412;-90
2024/01/02 07:58:01;;;;;;;22.10;8.00;;;;;;;3.56;100.00;98356.92;271522;1278;22405;-90
2024/01/02 08:04:03;;;;;;;23.20;8.20;;;;;;;3.65;100.00;98350.01;272172;1277;22514;-89
2024/01/02 08:10:07;;;;;;;22.60;8.80;;;;;;;3.74;100.00;98346.77;271159;1277;22689;-89
2024/01/02 08:16:08;;;;;;;16.20;8.20;;;;;;;3.85;100.00;98338.63;270416;1278;22558;-90
2024/01/02 08:22:12;;;;;;;18.70;8.40;;;;;;;3.98;100.00;98338.52;272156;1276;23491;-89
2024/01/02 08:28:15;;;;;;;24.20;8.00;;;;;;;4.12;100.00;98336.17;271969;1276;22254;-90
2024/01/02 08:34:17;;;;;;;15.50;6.60;;;;;;;4.39;100.00;98326.88;271267;1278;22596;-89
2024/01/02 08:40:19;;;;;;;14.10;6.20;;;;;;;4.73;100.00;98324.76;271880;1277;22311;-89
2024/01/02 08:46:21;;;;;;;12.90;5.50;;;;;;;5.11;100.00;98322.88;271963;1278;22166;-89
2024/01/02 08:52:23;;;;;;;11.90;4.60;;;;;;;5.43;100.00;98314.02;272082;1278;22494;-89
2024/01/02 08:58:25;;;;;;;15.50;4.40;;;;;;;5.80;100.00;98307.78;272229;1276;22308;-89
2024/01/02 09:04:26;;;;;;;8.90;3.00;;;;;;;6.16;100.00;98303.65;272002;1277;22424;-90
2024/01/02 09:10:29;;;;;;;12.10;3.40;;;;;;;6.40;100.00;98307.23;272243;1276;22197;-89
2024/01/02 09:16:32;;;;;;;11.20;3.10;;;;;;;6.55;100.00;98311.98;272275;1278;22652;-89
2024/01/02 09:22:34;;;;;;;11.00;3.30;;;;;;;6.80;100.00;98307.24;271139;1277;23818;-90
2024/01/02 09:28:38;;;;;;;11.10;3.10;;;;;;;6.99;100.00;98305.18;270197;1270;23614;-88
2024/01/02 09:34:40;;;;;;;9.60;3.10;;;;;;;7.12;100.00;98297.83;270877;1270;23729;-89
2024/01/02 09:40:54;;;;;;;8.40;3.00;;;;;;;7.23;100.00;98289.02;272239;1277;23222;-89
2024/01/02 09:47:13;;;;;;;5.10;2.40;;;;;;;7.40;100.00;98287.06;270785;1277;22395;-91
2024/01/02 09:53:38;;;;;;;10.40;2.90;;;;;;;7.61;100.00;98278.52;272123;1276;22321;-89
2024/01/02 09:59:52;;;;;;;9.80;3.00;;;;;;;7.79;100.00;98269.14;272048;1276;23271;-91
2024/01/02 10:06:09;;;;;;;9.00;2.80;;;;;;;7.77;100.00;98265.94;272043;1277;22430;-90
2024/01/02 10:12:30;;;;;;;10.20;2.70;;;;;;;7.81;100.00;98257.48;272045;1279;22818;-90
2024/01/02 10:18:43;;;;;;;6.40;2.10;;;;;;;7.81;100.00;98249.70;270773;1277;22359;-89
2024/01/02 10:25:05;;;;;;;12.50;2.90;;;;;;;7.67;100.00;98241.78;272128;1277;22289;-89
2024/01/02 10:31:14;;;;;;;9.70;2.60;;;;;;;7.56;100.00;98226.32;272099;1280;23187;-89
2024/01/02 10:37:19;;;;;;;7.30;2.20;;;;;;;7.47;100.00;98218.77;272128;1276;23102;-90
2024/01/02 10:43:30;;;;;;;9.20;2.50;;;;;;;7.42;100.00;98207.20;270590;1277;22594;-90
2024/01/02 10:49:38;;;;;;;9.10;2.80;;;;;;;7.39;100.00;98199.37;272139;1275;22398;-89
2024/01/02 10:55:52;;;;;;;11.90;2.70;;;;;;;7.42;100.00;98189.61;272181;1276;22849;-90
2024/01/02 11:02:01;;;;;;;9.50;2.60;;;;;;;7.52;100.00;98175.64;271854;1277;23257;-89
2024/01/02 11:08:20;;;;;;;6.80;2.40;;;;;;;7.49;100.00;98160.82;272055;1276;22190;-91
2024/01/02 11:14:24;;;;;;;8.80;2.80;;;;;;;7.35;100.00;98154.45;269900;1277;24361;-89
2024/01/02 11:20:35;;;;;;;11.80;3.00;;;;;;;7.27;100.00;98145.73;269716;1281;22606;-89
2024/01/02 11:26:40;;;;;;;8.60;3.20;;;;;;;7.28;100.00;98134.08;271130;1276;23284;-90
2024/01/02 11:33:17;;;;;;;10.80;3.50;;;;;;;7.39;100.00;98125.87;269686;1278;23480;-89
2024/01/02 11:39:33;;;;;;;6.80;2.60;;;;;;;7.42;100.00;98118.89;271833;1277;22194;-89
2024/01/02 11:45:37;;;;;;;11.30;3.60;;;;;;;7.41;100.00;98109.45;272166;1279;22420;-88
2024/01/02 11:51:42;;;;;;;11.10;3.10;;;;;;;7.33;100.00;98095.39;272113;1276;22528;-89
2024/01/02 11:57:54;;;;;;;9.10;3.70;;;;;;;7.30;100.00;98081.05;272085;1276;23388;-90
2024/01/02 12:04:13;;;;;;;11.10;3.60;;;;;;;7.31;100.00;98066.12;270504;1278;26873;-89
2024/01/02 12:10:15;;;;;;;9.10;3.10;;;;;;;7.25;100.00;98054.02;269481;1277;22229;-89
2024/01/02 12:16:18;;;;;;;10.80;3.40;;;;;;;7.15;100.00;98050.11;272209;1278;22417;-89
2024/01/02 12:22:20;;;;;;;14.10;3.80;;;;;;;7.12;99.84;98038.80;271808;1278;22198;-90
2024/01/02 12:28:24;;;;;;;14.20;4.70;;;;;;;7.08;99.61;98036.13;272119;1276;22777;-90
2024/01/02 12:34:31;;;;;;;15.40;4.00;;;;;;;7.08;99.67;98035.59;272165;1277;22242;-89
2024/01/02 12:40:35;;;;;;;9.70;4.20;;;;;;;7.05;99.43;98029.65;272062;1276;22410;-90
2024/01/02 12:46:46;;;;;;;10.00;4.20;;;;;;;7.04;99.22;98023.88;270102;1274;26972;-90
2024/01/02 12:53:11;;;;;;;10.00;4.50;;;;;;;7.03;98.72;98023.88;270311;1278;23100;-91
2024/01/02 12:59:13;;;;;;;11.80;4.40;;;;;;;7.04;98.20;98020.92;272075;1275;23053;-89
2024/01/02 13:05:16;;;;;;;14.00;5.30;;;;;;;7.00;98.04;98010.30;272187;1279;23660;-90
2024/01/02 13:11:22;;;;;;;13.60;5.60;;;;;;;6.95;97.72;97993.48;271969;1280;22219;-90
2024/01/02 13:17:25;;;;;;;22.10;8.80;;;;;;;6.90;97.49;97976.63;272158;1276;22427;-90
2024/01/02 13:23:28;;;;;;;20.00;8.90;;;;;;;6.87;97.08;97964.48;272149;1279;23069;-90
2024/01/02 13:29:30;;;;;;;13.30;5.20;;;;;;;6.79;96.92;97955.39;272112;1277;22424;-89
2024/01/02 13:35:32;;;;;;;11.30;5.00;;;;;;;6.72;96.93;97936.45;272262;1276;22336;-90
2024/01/02 13:41:41;;;;;;;15.60;5.90;;;;;;;6.65;97.17;97942.36;272056;1277;23364;-88
2024/01/02 13:47:44;;;;;;;17.90;8.60;;;;;;;6.61;96.82;97950.64;272107;1277;22263;-90
2024/01/02 13:54:01;;;;;;;34.90;16.50;;;;;;;6.59;96.56;97933.05;271841;1276;22266;-90
2024/01/02 14:00:10;;;;;;;16.30;7.60;;;;;;;6.55;96.38;97927.96;271960;1277;22388;-90
2024/01/02 14:06:15;;;;;;;22.80;6.90;;;;;;;6.49;96.22;97924.19;270797;1276;22232;-90
2024/01/02 14:12:17;;;;;;;15.00;6.00;;;;;;;6.46;95.76;97921.83;270779;1277;22224;-89
2024/01/02 14:18:19;;;;;;;13.90;5.50;;;;;;;6.43;95.15;97914.25;272107;1276;22928;-91
2024/01/02 14:24:28;;;;;;;11.60;4.10;;;;;;;6.42;94.61;97912.62;272097;1277;23827;-89
2024/01/02 14:30:32;;;;;;;13.20;4.30;;;;;;;6.41;94.09;97910.67;271847;1276;22846;-89
2024/01/02 14:36:50;;;;;;;8.50;4.30;;;;;;;6.37;94.12;97909.38;271793;1276;22379;-90
2024/01/02 14:43:20;;;;;;;9.00;3.70;;;;;;;6.26;94.09;97899.56;272030;1277;22426;-89
2024/01/02 14:49:31;;;;;;;8.30;3.30;;;;;;;6.19;94.36;97895.29;272108;1277;22187;-89
2024/01/02 14:55:41;;;;;;;5.30;1.90;;;;;;;6.10;94.55;97896.83;272027;1275;22280;-88
2024/01/02 15:02:17;;;;;;;4.00;1.60;;;;;;;6.06;94.89;97894.92;270624;1275;24231;-90
2024/01/02 15:08:27;;;;;;;4.40;1.30;;;;;;;5.96;95.39;97886.03;271778;1276;22389;-89
2024/01/02 15:14:44;;;;;;;3.50;1.10;;;;;;;5.83;96.06;97879.81;271899;1276;22219;-90
2024/01/02 15:21:15;;;;;;;5.40;1.30;;;;;;;5.68;96.66;97873.33;270820;1270;22390;-89
2024/01/02 15:27:21;;;;;;;3.00;1.60;;;;;;;5.55;97.33;97859.12;271856;1276;22452;-89
2024/01/02 15:33:27;;;;;;;5.80;2.00;;;;;;;5.45;97.83;97855.42;271797;1277;22185;-89
2024/01/02 15:39:30;;;;;;;3.20;1.70;;;;;;;5.41;98.64;97853.14;271804;1276;23456;-89
2024/01/02 15:45:37;;;;;;;4.30;1.90;;;;;;;5.35;99.24;97842.05;271010;1275;24289;-89
2024/01/02 15:51:42;;;;;;;8.10;2.60;;;;;;;5.23;99.74;97837.46;270540;1276;22198;-88
2024/01/02 15:57:52;;;;;;;12.20;6.50;;;;;;;5.12;99.77;97841.66;272133;1276;22278;-90
2024/01/02 16:04:00;;;;;;;25.00;11.40;;;;;;;5.09;99.99;97831.30;270313;1276;22886;-90
2024/01/02 16:10:37;;;;;;;53.20;21.90;;;;;;;5.06;99.99;97825.99;269163;1277;22631;-90
2024/01/02 16:16:53;;;;;;;;;;;;;;;;;;;;;
2024/01/02 16:24:10;;;;;;;14.70;6.80;;;;;;;4.96;100.00;97819.09;272232;1276;22385;-89
2024/01/02 16:30:25;;;;;;;19.00;8.50;;;;;;;4.87;100.00;97804.24;272063;1276;22237;-90
2024/01/02 16:37:20;;;;;;;23.90;11.20;;;;;;;4.79;100.00;97789.50;272326;1276;22252;-90
2024/01/02 16:43:23;;;;;;;23.20;12.20;;;;;;;4.74;100.00;97768.35;271579;1277;22361;-89
2024/01/02 16:49:40;;;;;;;19.50;9.20;;;;;;;4.67;100.00;97755.16;271620;1276;23344;-89
2024/01/02 16:55:45;;;;;;;18.20;8.00;;;;;;;4.62;100.00;97742.55;272117;1276;22215;-90
2024/01/02 17:01:49;;;;;;;20.40;8.90;;;;;;;4.59;100.00;97733.52;272144;1276;22459;-90
2024/01/02 17:07:52;;;;;;;17.40;8.20;;;;;;;4.58;100.00;97721.73;272260;1276;22506;-90
2024/01/02 17:13:56;;;;;;;17.90;8.00;;;;;;;4.56;100.00;97709.46;272212;1277;22318;-90
2024/01/02 17:20:02;;;;;;;17.40;8.60;;;;;;;4.52;100.00;97696.41;271942;1276;22590;-89
2024/01/02 17:26:06;;;;;;;12.10;6.30;;;;;;;4.51;100.00;97686.41;269131;1277;22600;-90
2024/01/02 17:32:08;;;;;;;25.20;12.40;;;;;;;4.51;100.00;97674.10;271434;1277;22228;-90
2024/01/02 17:38:11;;;;;;;42.80;17.40;;;;;;;4.51;100.00;97663.42;272140;1276;23246;-89
2024/01/02 17:44:25;;;;;;;33.00;13.20;;;;;;;4.53;100.00;97660.48;271854;1280;22219;-89
2024/01/02 17:50:27;;;;;;;42.70;17.30;;;;;;;4.53;100.00;97658.02;272082;1277;22448;-89
2024/01/02 17:56:29;;;;;;;21.30;11.80;;;;;;;4.54;100.00;97650.52;272293;1276;22338;-90
2024/01/02 18:02:34;;;;;;;23.40;11.50;;;;;;;4.47;100.00;97643.23;272188;1277;22239;-88
2024/01/02 18:08:42;;;;;;;26.10;11.40;;;;;;;4.45;100.00;97630.50;272261;1277;22229;-89
2024/01/02 18:14:59;;;;;;;21.20;9.90;;;;;;;4.49;100.00;97623.76;272032;1273;23218;-89
2024/01/02 18:21:24;;;;;;;18.40;8.50;;;;;;;4.53;100.00;97621.16;271947;1277;22292;-90
2024/01/02 18:27:49;;;;;;;13.50;7.50;;;;;;;4.53;100.00;97604.21;272054;1276;22190;-90
2024/01/02 18:34:33;;;;;;;24.00;8.40;;;;;;;4.56;100.00;97585.90;272163;1277;22408;-90
2024/01/02 18:41:04;;;;;;;14.70;6.20;;;;;;;4.57;100.00;97576.46;272104;1276;22455;-90
2024/01/02 18:47:09;;;;;;;10.90;6.10;;;;;;;4.58;100.00;97565.94;272085;1276;22208;-89
2024/01/02 18:53:18;;;;;;;13.40;6.60;;;;;;;4.57;100.00;97556.55;271963;1277;22251;-90
2024/01/02 18:59:23;;;;;;;13.10;6.50;;;;;;;4.57;100.00;97544.71;272152;1276;22215;-89
2024/01/02 19:05:42;;;;;;;16.60;7.30;;;;;;;4.60;100.00;97533.90;272118;1277;22227;-90
2024/01/02 19:12:01;;;;;;;14.30;7.50;;;;;;;4.61;100.00;97522.84;271759;1276;22554;-90
2024/01/02 19:18:05;;;;;;;15.60;8.20;;;;;;;4.53;100.00;97511.45;269384;1277;22973;-91
2024/01/02 19:24:08;;;;;;;17.70;8.00;;;;;;;4.46;100.00;97495.19;270456;1276;22212;-90
2024/01/02 19:30:13;;;;;;;15.70;7.50;;;;;;;4.43;100.00;97485.40;270234;1276;22663;-89
2024/01/02 19:36:17;;;;;;;;;;;;;;;4.38;100.00;97476.92;269297;1277;23838;-90
2024/01/02 19:42:20;;;;;;;18.20;9.00;;;;;;;4.35;100.00;97472.38;270995;1276;22320;-90
2024/01/02 19:48:22;;;;;;;20.20;8.50;;;;;;;4.32;100.00;97468.79;271755;1277;23354;-90
2024/01/02 19:54:24;;;;;;;26.00;11.80;;;;;;;4.29;100.00;97463.58;271602;1276;22220;-89
2024/01/02 20:00:28;;;;;;;23.10;10.40;;;;;;;4.28;100.00;97463.63;272087;1277;23014;-90
2024/01/02 20:07:08;;;;;;;41.60;18.40;;;;;;;4.27;100.00;97457.20;271585;1276;22494;-88
2024/01/02 20:13:27;;;;;;;48.30;20.80;;;;;;;4.22;100.00;97449.57;271343;1275;22416;-91
2024/01/02 20:19:35;;;;;;;27.30;14.20;;;;;;;4.22;100.00;97445.30;272047;1275;22395;-91
2024/01/02 20:25:44;;;;;;;41.50;18.50;;;;;;;4.21;100.00;97446.38;270913;1276;22344;-90
2024/01/02 20:31:49;;;;;;;22.80;12.30;;;;;;;4.21;100.00;97434.30;270432;1277;22588;-89
2024/01/02 20:37:56;;;;;;;21.60;12.30;;;;;;;4.19;100.00;97422.45;271081;1268;22357;-89
2024/01/02 20:43:58;;;;;;;25.90;14.80;;;;;;;4.17;100.00;97413.14;264530;1277;10002011;-89
2024/01/02 20:50:30;;;;;;;36.60;17.90;;;;;;;4.14;100.00;97405.21;272190;1276;23052;-90
2024/01/02 20:56:53;;;;;;;35.80;20.30;;;;;;;4.13;100.00;97400.88;272204;1274;22310;-89
2024/01/02 21:02:59;;;;;;;30.50;19.50;;;;;;;4.11;100.00;97390.02;272180;1276;22355;-90
2024/01/02 21:09:18;;;;;;;36.70;19.30;;;;;;;4.10;100.00;97381.95;272164;1275;22326;-90
2024/01/02 21:15:22;;;;;;;35.40;18.80;;;;;;;4.08;100.00;97369.79;272194;1277;22445;-90
2024/01/02 21:21:42;;;;;;;32.50;17.80;;;;;;;4.08;100.00;97364.77;272112;1275;22191;-90
2024/01/02 21:27:45;;;;;;;30.40;16.80;;;;;;;4.08;100.00;97362.13;272064;1274;23092;-89
2024/01/02 21:33:47;;;;;;;29.30;16.80;;;;;;;4.09;100.00;97358.04;272110;1278;23300;-89
2024/01/02 21:39:49;;;;;;;37.30;20.90;;;;;;;4.11;100.00;97360.92;270187;1277;22554;-89
2024/01/02 21:45:55;;;;;;;39.50;21.10;;;;;;;4.10;100.00;97357.66;270743;1278;23003;-89
2024/01/02 21:51:59;;;;;;;33.70;18.80;;;;;;;4.07;100.00;97349.05;269777;1276;22543;-89
2024/01/02 21:58:08;;;;;;;42.40;21.20;;;;;;;4.06;100.00;97340.84;270135;1277;22413;-90
2024/01/02 22:04:11;;;;;;;55.70;26.40;;;;;;;4.06;100.00;97341.46;271200;1276;22520;-89
2024/01/02 22:10:39;;;;;;;52.10;25.60;;;;;;;4.08;100.00;97335.75;271715;1274;22549;-89
2024/01/02 22:16:41;;;;;;;42.40;19.20;;;;;;;4.08;100.00;97330.48;269661;1276;22537;-89
2024/01/02 22:22:44;;;;;;;44.40;22.10;;;;;;;4.07;100.00;97327.16;270085;1276;22591;-89
2024/01/02 22:28:47;;;;;;;44.10;20.90;;;;;;;4.10;100.00;97319.83;268829;1277;22546;-89
2024/01/02 22:34:50;;;;;;;32.00;15.70;;;;;;;4.11;100.00;97313.28;269119;1277;22710;-91
2024/01/02 22:40:52;;;;;;;11.70;5.90;;;;;;;4.13;100.00;97313.52;268654;1277;22715;-89
2024/01/02 22:46:55;;;;;;;6.90;3.60;;;;;;;4.20;100.00;97307.23;268745;1276;24175;-88
2024/01/02 22:52:57;;;;;;;4.50;2.20;;;;;;;4.30;100.00;97297.58;269378;1276;22453;-90
2024/01/02 22:58:59;;;;;;;4.20;2.30;;;;;;;4.43;100.00;97297.76;270311;1276;22234;-90
2024/01/02 23:05:01;;;;;;;2.30;1.20;;;;;;;4.57;100.00;97288.73;269590;1276;22301;-89
2024/01/02 23:11:05;;;;;;;3.10;1.70;;;;;;;4.68;100.00;97280.66;269336;1277;24383;-89
2024/01/02 23:17:34;;;;;;;3.00;1.70;;;;;;;4.69;100.00;97276.97;269506;1278;23434;-90
2024/01/02 23:23:53;;;;;;;3.30;1.50;;;;;;;4.69;100.00;97261.64;271587;1276;22402;-88
2024/01/02 23:29:56;;;;;;;2.70;1.60;;;;;;;4.72;100.00;97246.31;272022;1276;23409;-90
2024/01/02 23:35:58;;;;;;;4.90;1.80;;;;;;;4.73;100.00;97229.98;271953;1276;22304;-90
2024/01/02 23:42:05;;;;;;;3.00;1.40;;;;;;;4.74;100.00;97219.98;272208;1275;22328;-89
2024/01/02 23:48:17;;;;;;;3.70;2.00;;;;;;;4.74;100.00;97213.96;272269;1260;22310;-89
2024/01/02 23:54:46;;;;;;;4.30;2.00;;;;;;;4.74;100.00;97194.98;272132;1277;22527;-89
